• Join FlightAware (Why Join?)
  • Login
  • US Flag 
05:17PM EDT


 

Airport Tracker/Info


-or-


 

Live Flight TrackerFlight Track Log ✈ TAM3592 ✈ 06-May-2012 ✈ SBGR / GRU - SBCG / CGR

Flight Track Log - Related Links

Times and Time Zones

All times are in EDT time to prevent confusion due to time zone crossing. See the TAM3592 flight status page for this flight to view local times or setup timezone preferences in your user account.

Time Position Orientation Groundspeed Altitude Reporting Facility
EDT Latitude Longitude Course Direction KTS MPH feet Rate Location/Type
02:44PM -21.8110 -51.1372 292° West  Level Estimated
02:45PM -21.7794 -51.2233 292° West  Level Estimated
02:46PM -21.7479 -51.3094 292° West  Level Estimated
02:47PM -21.7162 -51.3955 292° West  Level Estimated
02:48PM -21.6845 -51.4815 292° West  Level Estimated
02:49PM -21.6528 -51.5675 292° West  Level Estimated
02:50PM -21.6210 -51.6535 292° West  Level Estimated
02:51PM -21.5892 -51.7394 292° West  Level Estimated
02:52PM -21.5574 -51.8253 292° West  Level Estimated
02:53PM -21.5255 -51.9112 292° West  Level Estimated
02:54PM -21.4935 -51.9970 292° West  Level Estimated
02:55PM -21.4615 -52.0827 292° West  Level Estimated
02:56PM -21.4295 -52.1685 292° West  Level Estimated
02:57PM -21.3974 -52.2542 292° West  Level Estimated
02:58PM -21.3653 -52.3398 292° West  Level Estimated
02:59PM -21.3332 -52.4254 292° West  Level Estimated
03:00PM -21.3010 -52.5110 292° West  Level Estimated
03:01PM -21.2687 -52.5966 292° West  Level Estimated
03:02PM -21.2364 -52.6821 292° West  Level Estimated
03:03PM -21.2041 -52.7676 292° West  Level Estimated
03:04PM -21.1717 -52.8530 292° West  Level Estimated
03:05PM -21.1393 -52.9384 292° West  Level Estimated
03:06PM -21.1068 -53.0237 292° West  Level Estimated
03:07PM -21.0743 -53.1091 292° West  Level Estimated
03:08PM -21.0418 -53.1943 292° West  Level Estimated
03:09PM -21.0092 -53.2796 292° West  Level Estimated
03:10PM -20.9766 -53.3648 292° West  Level Estimated
03:11PM -20.9439 -53.4500 292° West  Level Estimated
03:12PM -20.9112 -53.5351 292° West  Level Estimated
03:13PM -20.8784 -53.6202 292° West  Level Estimated
03:14PM -20.8456 -53.7053 292° West  Level Estimated
03:15PM -20.8128 -53.7903 292° West  Level Estimated
03:16PM -20.7799 -53.8753 293° West  Level Estimated
03:17PM -20.7470 -53.9602 293° West  Level Estimated
03:18PM -20.7140 -54.0451 293° West  Level Estimated
03:19PM -20.6810 -54.1300 293° West  Level Estimated
03:20PM -20.6479 -54.2148 293° West  Level Estimated
03:21PM -20.6148 -54.2996 293° West  Level Estimated
03:22PM -20.5817 -54.3844 293° West  Level Estimated
03:23PM -20.5485 -54.4691 293° West  Level Estimated
03:24PM -20.5153 -54.5538 293° West  Level Estimated
03:25PM -20.4820 -54.6385 293° West  Level Estimated
03:26PM -20.4488 -54.7231 113° Southeast  Level Estimated
03:27PM -20.4820 -54.6385 293° West  Level Estimated
03:28PM -20.4488 -54.7231 113° Southeast  Level Estimated
03:29PM -20.4820 -54.6385 293° West  Level Estimated
03:30PM -20.4488 -54.7231 113° Southeast  Level Estimated
03:31PM -20.4820 -54.6385 293° West  Level Estimated
03:32PM -20.4488 -54.7231 113° Southeast  Level Estimated
03:33PM -20.4820 -54.6385 293° West  Level Estimated
03:34PM -20.4488 -54.7231 113° Southeast  Level Estimated
03:35PM -20.4820 -54.6385 293° West  Level Estimated
03:36PM -20.4488 -54.7231 113° Southeast  Level Estimated
03:37PM -20.4820 -54.6385 293° West  Level Estimated
03:38PM -20.4488 -54.7231 113° Southeast  Level Estimated
03:39PM -20.4820 -54.6385 293° West  Level Estimated
03:40PM -20.4488 -54.7231 113° Southeast  Level Estimated
03:41PM -20.4820 -54.6385 113° Southeast  Level Estimated